Time;durP1;ratioP1;P1;durP2;ratioP2;P2;SDS_P1;SDS_P2;PMS_P1;PMS_P2;Temp;Humidity;BMP_temperature;BMP_pressure;BME280_temperature;BME280_humidity;BME280_pressure;Samples;Min_cycle;Max_cycle;Signal;HPM_P1;HPM_P2
2022/11/27 00:01:36;;;;;;;35.30;13.52;;;;;;;;;;4996401;28;20029;-69
2022/11/27 00:04:02;;;;;;;43.35;15.02;;;;;;;;;;4984495;28;20146;-69
2022/11/27 00:06:28;;;;;;;23.30;10.48;;;;;;;;;;4981796;28;22416;-71
2022/11/27 00:08:58;;;;;;;34.13;12.65;;;;;;;;;;4980491;28;20037;-69
2022/11/27 00:11:24;;;;;;;41.03;13.82;;;;;;;;;;4982786;28;21675;-69
2022/11/27 00:13:50;;;;;;;35.55;12.75;;;;;;;;;;4978328;28;21280;-69
2022/11/27 00:16:16;;;;;;;37.67;14.30;;;;;;;;;;4981524;28;20905;-69
2022/11/27 00:18:44;;;;;;;32.20;12.25;;;;;;;;;;4979707;28;20037;-69
2022/11/27 00:21:11;;;;;;;41.83;14.50;;;;;;;;;;4983608;28;20045;-67
2022/11/27 00:23:36;;;;;;;24.88;10.73;;;;;;;;;;4980815;28;20115;-66
2022/11/27 00:26:02;;;;;;;37.85;13.90;;;;;;;;;;4980728;28;20835;-66
2022/11/27 00:28:29;;;;;;;35.40;12.60;;;;;;;;;;4982135;28;20112;-66
2022/11/27 00:30:58;;;;;;;37.97;13.02;;;;;;;;;;4983431;28;20037;-65
2022/11/27 00:33:26;;;;;;;25.20;10.07;;;;;;;;;;4980024;28;20037;-65
2022/11/27 00:35:54;;;;;;;30.90;8.90;;;;;;;;;;4979870;28;20045;-66
2022/11/27 00:38:19;;;;;;;31.15;9.95;;;;;;;;;;4980856;28;20041;-66
2022/11/27 00:40:45;;;;;;;23.27;9.35;;;;;;;;;;4983635;28;20077;-67
2022/11/27 00:43:13;;;;;;;21.17;8.35;;;;;;;;;;4981355;28;20029;-66
2022/11/27 00:45:39;;;;;;;24.52;9.15;;;;;;;;;;4981819;28;20053;-66
2022/11/27 00:48:07;;;;;;;23.95;8.68;;;;;;;;;;4982630;28;20041;-66
2022/11/27 00:50:35;;;;;;;29.40;8.68;;;;;;;;;;4982000;28;20805;-66
2022/11/27 00:53:01;;;;;;;19.48;8.65;;;;;;;;;;4982548;28;20148;-67
2022/11/27 00:55:26;;;;;;;28.38;10.02;;;;;;;;;;4979537;28;20036;-67
2022/11/27 00:57:52;;;;;;;22.85;9.35;;;;;;;;;;5012096;28;21144;-67
2022/11/27 01:00:17;;;;;;;28.15;11.75;;;;;;;;;;4966662;28;20561;-66
2022/11/27 01:02:43;;;;;;;25.08;10.48;;;;;;;;;;4977574;28;20045;-68
2022/11/27 01:05:08;;;;;;;25.73;9.68;;;;;;;;;;4980152;28;21127;-68
2022/11/27 01:07:36;;;;;;;29.15;10.32;;;;;;;;;;4982382;28;20763;-67
2022/11/27 01:10:03;;;;;;;24.27;8.73;;;;;;;;;;4980606;28;20037;-66
2022/11/27 01:12:29;;;;;;;28.67;11.30;;;;;;;;;;4983239;28;20033;-67
2022/11/27 01:14:54;;;;;;;24.08;9.43;;;;;;;;;;4981000;28;20137;-67
2022/11/27 01:17:22;;;;;;;26.35;11.15;;;;;;;;;;4979568;28;20148;-66
2022/11/27 01:19:49;;;;;;;39.03;14.05;;;;;;;;;;4993469;28;20037;-67
2022/11/27 01:22:17;;;;;;;39.10;14.02;;;;;;;;;;5002840;28;20095;-67
2022/11/27 01:24:42;;;;;;;35.65;14.02;;;;;;;;;;5002047;28;20959;-66
2022/11/27 01:27:11;;;;;;;33.50;13.32;;;;;;;;;;5002510;28;20029;-67
2022/11/27 01:29:38;;;;;;;25.27;10.90;;;;;;;;;;5003369;28;20899;-66
2022/11/27 01:32:04;;;;;;;26.92;10.45;;;;;;;;;;5006498;28;20045;-68
2022/11/27 01:34:30;;;;;;;48.58;17.40;;;;;;;;;;5006324;28;20064;-66
2022/11/27 01:36:55;;;;;;;27.92;11.75;;;;;;;;;;5002672;28;20071;-66
2022/11/27 01:39:22;;;;;;;30.00;10.13;;;;;;;;;;5003074;28;20048;-65
2022/11/27 01:41:48;;;;;;;19.50;8.65;;;;;;;;;;5004104;28;20071;-65
2022/11/27 01:44:23;;;;;;;38.78;14.15;;;;;;;;;;4990631;28;20029;-67
2022/11/27 01:46:59;;;;;;;23.52;7.28;;;;;;;;;;4984690;28;20037;-71
2022/11/27 01:49:33;;;;;;;23.63;7.88;;;;;;;;;;4986565;28;20107;-70
2022/11/27 01:52:03;;;;;;;21.38;7.93;;;;;;;;;;4984775;28;20895;-70
2022/11/27 01:54:36;;;;;;;17.67;8.05;;;;;;;;;;4984873;28;20140;-68
2022/11/27 01:57:05;;;;;;;22.30;9.77;;;;;;;;;;5004135;28;20049;-70
2022/11/27 01:59:31;;;;;;;26.92;10.13;;;;;;;;;;5003116;28;20784;-70
2022/11/27 02:01:56;;;;;;;21.48;6.65;;;;;;;;;;4993202;28;20037;-68
2022/11/27 02:04:21;;;;;;;22.20;6.95;;;;;;;;;;4985037;28;20128;-71
2022/11/27 02:06:47;;;;;;;17.80;6.82;;;;;;;;;;4985033;28;20033;-70
2022/11/27 02:09:15;;;;;;;28.63;10.27;;;;;;;;;;4983034;28;20137;-72
2022/11/27 02:11:58;;;;;;;19.58;6.93;;;;;;;;;;4982275;28;20044;-70
2022/11/27 02:14:40;;;;;;;20.15;6.38;;;;;;;;;;5014236;28;20486;-75
2022/11/27 02:17:06;;;;;;;18.65;6.68;;;;;;;;;;4984591;28;20141;-69
2022/11/27 02:19:31;;;;;;;18.80;5.63;;;;;;;;;;4982971;28;20042;-71
2022/11/27 02:22:03;;;;;;;25.65;8.57;;;;;;;;;;4983663;28;20318;-69
2022/11/27 02:24:37;;;;;;;19.73;7.57;;;;;;;;;;4982759;28;20666;-68
2022/11/27 02:27:21;;;;;;;20.38;6.85;;;;;;;;;;4983520;28;20575;-67
2022/11/27 02:29:48;;;;;;;22.33;7.13;;;;;;;;;;4983688;28;20040;-67
2022/11/27 02:32:14;;;;;;;18.08;5.97;;;;;;;;;;4984469;28;20044;-68
2022/11/27 02:34:44;;;;;;;21.08;7.22;;;;;;;;;;4985000;28;20103;-67
2022/11/27 02:37:19;;;;;;;21.42;7.32;;;;;;;;;;4982914;28;20045;-67
2022/11/27 02:39:48;;;;;;;21.70;7.20;;;;;;;;;;5000111;28;20033;-67
2022/11/27 02:42:18;;;;;;;22.98;8.02;;;;;;;;;;5001691;28;22379;-67
2022/11/27 02:44:46;;;;;;;18.15;6.80;;;;;;;;;;5002208;28;20592;-66
2022/11/27 02:47:13;;;;;;;36.40;12.45;;;;;;;;;;5002489;28;20036;-66
2022/11/27 02:49:39;;;;;;;21.20;6.82;;;;;;;;;;5001906;28;20041;-67
2022/11/27 02:52:05;;;;;;;33.67;11.38;;;;;;;;;;5001531;28;20086;-66
2022/11/27 02:54:32;;;;;;;20.10;7.28;;;;;;;;;;5002985;28;20888;-66
2022/11/27 02:56:59;;;;;;;24.08;10.57;;;;;;;;;;4990747;28;20099;-66
2022/11/27 02:59:30;;;;;;;21.65;7.20;;;;;;;;;;4982930;28;20032;-67
2022/11/27 03:01:58;;;;;;;18.52;6.70;;;;;;;;;;4981289;28;20029;-66
2022/11/27 03:04:27;;;;;;;26.98;7.82;;;;;;;;;;4982753;28;20053;-66
2022/11/27 03:06:54;;;;;;;18.40;6.40;;;;;;;;;;4997143;28;20033;-64
2022/11/27 03:09:33;;;;;;;19.38;6.80;;;;;;;;;;4983755;28;20036;-66
2022/11/27 03:12:01;;;;;;;20.30;7.10;;;;;;;;;;4980946;28;20029;-67
2022/11/27 03:14:26;;;;;;;23.08;8.02;;;;;;;;;;4983722;28;20087;-66
2022/11/27 03:17:04;;;;;;;23.52;7.55;;;;;;;;;;5013889;28;20578;-66
2022/11/27 03:19:37;;;;;;;18.55;5.53;;;;;;;;;;4982079;28;20034;-65
2022/11/27 03:22:03;;;;;;;19.98;6.50;;;;;;;;;;4979527;28;20068;-65
2022/11/27 03:24:28;;;;;;;16.80;5.65;;;;;;;;;;4982280;28;20132;-66
2022/11/27 03:26:55;;;;;;;17.73;7.10;;;;;;;;;;4981882;28;20857;-66
2022/11/27 03:29:42;;;;;;;16.80;5.80;;;;;;;;;;5001603;28;20429;-65
2022/11/27 03:32:07;;;;;;;17.75;6.53;;;;;;;;;;4979482;28;20931;-66
2022/11/27 03:34:35;;;;;;;24.02;8.00;;;;;;;;;;4982553;28;20038;-65
2022/11/27 03:37:01;;;;;;;29.05;7.07;;;;;;;;;;4978703;28;20069;-65
2022/11/27 03:39:26;;;;;;;22.13;8.02;;;;;;;;;;4980257;28;20037;-66
2022/11/27 03:42:10;;;;;;;22.20;7.93;;;;;;;;;;4979504;28;20064;-68
2022/11/27 03:44:44;;;;;;;18.73;7.30;;;;;;;;;;4980356;28;20041;-66
2022/11/27 03:47:10;;;;;;;18.58;6.13;;;;;;;;;;4982376;28;20550;-66
2022/11/27 03:49:51;;;;;;;22.27;7.47;;;;;;;;;;4980335;28;20060;-66
2022/11/27 03:52:25;;;;;;;21.52;7.18;;;;;;;;;;4980834;28;20049;-67
2022/11/27 03:54:57;;;;;;;24.38;7.38;;;;;;;;;;4998264;28;20984;-66
2022/11/27 03:57:27;;;;;;;20.67;6.03;;;;;;;;;;4989247;28;20049;-65
2022/11/27 03:59:55;;;;;;;22.85;5.82;;;;;;;;;;4980548;28;20065;-66
2022/11/27 04:02:38;;;;;;;23.92;6.60;;;;;;;;;;4979840;28;20819;-66
2022/11/27 04:05:03;;;;;;;15.80;6.03;;;;;;;;;;4979662;28;20166;-66
2022/11/27 04:07:29;;;;;;;19.83;6.20;;;;;;;;;;4982543;28;20053;-66
2022/11/27 04:09:54;;;;;;;21.40;8.00;;;;;;;;;;4981251;28;20065;-66
2022/11/27 04:12:22;;;;;;;15.68;5.50;;;;;;;;;;4980277;28;20509;-64
2022/11/27 04:14:49;;;;;;;18.20;5.72;;;;;;;;;;4979870;28;20037;-67
2022/11/27 04:17:15;;;;;;;18.70;5.65;;;;;;;;;;4980410;28;20057;-65
2022/11/27 04:19:40;;;;;;;20.40;6.63;;;;;;;;;;4983046;28;22096;-66
2022/11/27 04:22:05;;;;;;;16.27;5.45;;;;;;;;;;4982669;28;20041;-65
2022/11/27 04:24:34;;;;;;;15.50;5.22;;;;;;;;;;4978415;28;20048;-65
2022/11/27 04:26:59;;;;;;;20.38;6.07;;;;;;;;;;4982049;28;20108;-65
2022/11/27 04:29:25;;;;;;;23.00;7.32;;;;;;;;;;4980203;28;20072;-65
2022/11/27 04:31:50;;;;;;;36.60;10.38;;;;;;;;;;4982251;28;20061;-65
2022/11/27 04:34:15;;;;;;;31.02;9.77;;;;;;;;;;4980084;28;20131;-65
2022/11/27 04:36:45;;;;;;;30.27;10.65;;;;;;;;;;5014084;28;20037;-65
2022/11/27 04:39:12;;;;;;;33.13;11.48;;;;;;;;;;4991966;28;20390;-65
2022/11/27 04:41:37;;;;;;;35.75;11.18;;;;;;;;;;4980583;28;20049;-65
2022/11/27 04:44:02;;;;;;;40.95;12.48;;;;;;;;;;5011870;28;20034;-65
2022/11/27 04:46:27;;;;;;;38.63;12.40;;;;;;;;;;4979908;28;20030;-65
2022/11/27 04:48:53;;;;;;;23.40;8.65;;;;;;;;;;4979486;28;20033;-65
2022/11/27 04:51:18;;;;;;;34.53;13.23;;;;;;;;;;4979670;28;20119;-65
2022/11/27 04:53:43;;;;;;;29.25;11.13;;;;;;;;;;4980617;28;20878;-66
2022/11/27 04:56:11;;;;;;;28.00;10.00;;;;;;;;;;4978579;28;20034;-66
2022/11/27 04:58:37;;;;;;;24.85;9.82;;;;;;;;;;4980813;28;20054;-65
2022/11/27 05:01:06;;;;;;;37.17;12.90;;;;;;;;;;4978478;28;20088;-66
2022/11/27 05:03:31;;;;;;;29.50;13.05;;;;;;;;;;4985300;28;20131;-68
2022/11/27 05:05:57;;;;;;;45.25;14.48;;;;;;;;;;4982693;28;20104;-67
2022/11/27 05:08:23;;;;;;;37.33;13.77;;;;;;;;;;4986325;28;20520;-68
2022/11/27 05:11:02;;;;;;;39.97;17.00;;;;;;;;;;4983660;28;20925;-68
2022/11/27 05:13:30;;;;;;;40.75;16.90;;;;;;;;;;4985294;28;20052;-68
2022/11/27 05:15:58;;;;;;;49.70;17.08;;;;;;;;;;4983122;28;20033;-68
2022/11/27 05:18:23;;;;;;;33.97;13.05;;;;;;;;;;4983736;28;20320;-68
2022/11/27 05:20:56;;;;;;;29.08;11.05;;;;;;;;;;4979670;28;20026;-68
2022/11/27 05:23:21;;;;;;;;;;;;;;;;;;4982309;28;20038;-68
2022/11/27 05:25:46;;;;;;;25.64;9.64;;;;;;;;;;4985203;28;20302;-68
2022/11/27 05:28:11;;;;;;;17.73;6.82;;;;;;;;;;4980984;28;20040;-68
2022/11/27 05:30:37;;;;;;;19.60;7.72;;;;;;;;;;4984765;28;20757;-68
2022/11/27 05:33:02;;;;;;;21.85;7.50;;;;;;;;;;4982135;28;20072;-69
2022/11/27 05:35:27;;;;;;;25.95;8.93;;;;;;;;;;4985425;28;22256;-69
2022/11/27 05:37:53;;;;;;;35.30;14.40;;;;;;;;;;4984057;28;20160;-70
2022/11/27 05:40:18;;;;;;;31.33;11.25;;;;;;;;;;4985317;28;20121;-69
2022/11/27 05:42:43;;;;;;;32.53;14.95;;;;;;;;;;4986126;28;20092;-70
2022/11/27 05:45:14;;;;;;;28.48;12.02;;;;;;;;;;4985802;28;20029;-70
2022/11/27 05:47:39;;;;;;;29.58;10.93;;;;;;;;;;4982016;28;20033;-69
2022/11/27 05:50:05;;;;;;;31.25;14.23;;;;;;;;;;4983067;28;20056;-69
2022/11/27 05:52:30;;;;;;;36.03;15.40;;;;;;;;;;4983412;28;20483;-69
2022/11/27 05:54:58;;;;;;;33.97;15.05;;;;;;;;;;4981883;28;20099;-69
2022/11/27 05:57:23;;;;;;;29.98;12.30;;;;;;;;;;4982286;28;20045;-69
2022/11/27 05:59:49;;;;;;;39.80;16.15;;;;;;;;;;4983422;28;20107;-70
2022/11/27 06:02:15;;;;;;;37.35;14.73;;;;;;;;;;4984399;28;20038;-69
2022/11/27 06:04:40;;;;;;;47.67;21.35;;;;;;;;;;4986579;28;20056;-69
2022/11/27 06:07:05;;;;;;;38.90;20.30;;;;;;;;;;4983543;28;20657;-70
2022/11/27 06:09:36;;;;;;;35.20;15.52;;;;;;;;;;4982662;28;20168;-72
2022/11/27 06:12:01;;;;;;;26.17;11.77;;;;;;;;;;4985500;28;20123;-72
2022/11/27 06:14:27;;;;;;;28.70;11.52;;;;;;;;;;4982137;28;20037;-72
2022/11/27 06:16:52;;;;;;;25.92;8.23;;;;;;;;;;4983270;28;20495;-72
2022/11/27 06:19:18;;;;;;;23.85;7.57;;;;;;;;;;4981435;28;20021;-72
2022/11/27 06:21:45;;;;;;;22.67;8.75;;;;;;;;;;4981509;28;20045;-72
2022/11/27 06:24:10;;;;;;;21.85;8.43;;;;;;;;;;4981709;28;20033;-69
2022/11/27 06:26:36;;;;;;;20.17;8.27;;;;;;;;;;4980399;28;20033;-71
2022/11/27 06:29:01;;;;;;;20.02;7.72;;;;;;;;;;4984165;28;20041;-69
2022/11/27 06:31:27;;;;;;;28.80;9.40;;;;;;;;;;4999169;28;20048;-69
2022/11/27 06:33:54;;;;;;;29.77;8.98;;;;;;;;;;5003338;28;20048;-70
2022/11/27 06:36:23;;;;;;;22.60;7.47;;;;;;;;;;5002710;28;20171;-69
2022/11/27 06:38:49;;;;;;;22.98;7.70;;;;;;;;;;4996955;28;20132;-72
2022/11/27 06:41:15;;;;;;;28.27;8.93;;;;;;;;;;4997722;28;20045;-71
2022/11/27 06:43:40;;;;;;;31.48;11.18;;;;;;;;;;4998208;28;20040;-70
2022/11/27 06:46:08;;;;;;;21.02;7.93;;;;;;;;;;4997595;28;20543;-71
2022/11/27 06:48:33;;;;;;;27.00;8.93;;;;;;;;;;5002361;28;20037;-71
2022/11/27 06:51:03;;;;;;;33.63;10.02;;;;;;;;;;5001981;28;20044;-71
2022/11/27 06:53:29;;;;;;;31.10;9.63;;;;;;;;;;5002344;28;20087;-70
2022/11/27 06:55:55;;;;;;;31.73;9.43;;;;;;;;;;5003320;28;20107;-72
2022/11/27 06:58:20;;;;;;;42.10;13.27;;;;;;;;;;5005329;28;20071;-70
2022/11/27 07:00:45;;;;;;;23.55;9.43;;;;;;;;;;4999915;28;20206;-71
2022/11/27 07:03:13;;;;;;;27.90;8.38;;;;;;;;;;4999366;28;20067;-70
2022/11/27 07:05:38;;;;;;;39.60;11.32;;;;;;;;;;4999820;28;20087;-71
2022/11/27 07:08:04;;;;;;;26.45;8.48;;;;;;;;;;5000541;28;20045;-71
2022/11/27 07:10:33;;;;;;;18.17;6.13;;;;;;;;;;4996317;28;20147;-70
2022/11/27 07:12:58;;;;;;;19.65;7.38;;;;;;;;;;5032471;28;20081;-70
2022/11/27 07:15:24;;;;;;;28.42;9.30;;;;;;;;;;5000417;28;20043;-69
2022/11/27 07:17:49;;;;;;;34.45;10.38;;;;;;;;;;5016555;28;20044;-69
2022/11/27 07:20:15;;;;;;;19.45;7.22;;;;;;;;;;5006437;28;20048;-70
2022/11/27 07:22:40;;;;;;;24.00;7.15;;;;;;;;;;5003103;28;20036;-69
2022/11/27 07:25:06;;;;;;;16.83;6.28;;;;;;;;;;5002546;28;20044;-70
2022/11/27 07:27:31;;;;;;;18.25;6.40;;;;;;;;;;5026809;28;20043;-70
2022/11/27 07:29:59;;;;;;;19.65;7.22;;;;;;;;;;5002442;28;20155;-69
2022/11/27 07:32:24;;;;;;;21.55;7.30;;;;;;;;;;5000695;28;20052;-67
2022/11/27 07:34:50;;;;;;;22.67;7.32;;;;;;;;;;4990412;28;20037;-67
2022/11/27 07:37:16;;;;;;;21.38;6.63;;;;;;;;;;4981170;28;20049;-67
2022/11/27 07:39:43;;;;;;;25.63;9.00;;;;;;;;;;4976611;28;20288;-67
2022/11/27 07:42:11;;;;;;;21.63;7.80;;;;;;;;;;4966873;28;20517;-67
2022/11/27 07:44:36;;;;;;;22.70;7.38;;;;;;;;;;4978223;28;20184;-67
2022/11/27 07:47:02;;;;;;;17.88;6.10;;;;;;;;;;4979567;28;20051;-68
2022/11/27 07:49:27;;;;;;;24.60;8.48;;;;;;;;;;4980340;28;20540;-67
2022/11/27 07:51:52;;;;;;;19.90;6.68;;;;;;;;;;5010522;28;20057;-67
2022/11/27 07:54:17;;;;;;;35.65;10.57;;;;;;;;;;4975477;28;20029;-68
2022/11/27 07:56:43;;;;;;;20.92;7.03;;;;;;;;;;4978875;28;20038;-67
2022/11/27 07:59:08;;;;;;;15.57;5.55;;;;;;;;;;4980267;28;20367;-67
2022/11/27 08:01:33;;;;;;;21.88;6.95;;;;;;;;;;4978394;28;20029;-67
2022/11/27 08:03:59;;;;;;;20.63;7.47;;;;;;;;;;4980352;28;21610;-65
2022/11/27 08:06:25;;;;;;;18.55;6.38;;;;;;;;;;4978250;28;20041;-64
2022/11/27 08:08:50;;;;;;;15.80;5.68;;;;;;;;;;4979817;28;20037;-66
2022/11/27 08:11:21;;;;;;;20.02;7.18;;;;;;;;;;4978343;28;20765;-66
2022/11/27 08:13:48;;;;;;;23.42;7.03;;;;;;;;;;4980349;28;20437;-66
2022/11/27 08:16:14;;;;;;;20.63;6.80;;;;;;;;;;4995042;28;20048;-66
2022/11/27 08:18:39;;;;;;;18.52;6.75;;;;;;;;;;4981054;28;20694;-66
2022/11/27 08:21:05;;;;;;;18.65;6.65;;;;;;;;;;4977403;28;20255;-66
2022/11/27 08:23:30;;;;;;;14.80;6.25;;;;;;;;;;4977573;28;20509;-66
2022/11/27 08:25:55;;;;;;;19.58;7.65;;;;;;;;;;4960570;28;20048;-66
2022/11/27 08:28:21;;;;;;;16.40;6.57;;;;;;;;;;4977110;28;20087;-65
2022/11/27 08:30:54;;;;;;;27.25;9.05;;;;;;;;;;5009981;28;20041;-65
2022/11/27 08:33:19;;;;;;;22.23;7.30;;;;;;;;;;4997454;28;20508;-68
2022/11/27 08:35:50;;;;;;;23.52;7.35;;;;;;;;;;4984990;28;20271;-67
2022/11/27 08:38:15;;;;;;;24.42;8.32;;;;;;;;;;5032756;28;20313;-67
2022/11/27 08:40:40;;;;;;;21.85;9.13;;;;;;;;;;5003101;28;20130;-67
2022/11/27 08:43:06;;;;;;;24.80;9.60;;;;;;;;;;4998472;28;20552;-68
2022/11/27 08:45:32;;;;;;;19.75;8.18;;;;;;;;;;5004511;28;20514;-68
2022/11/27 08:47:57;;;;;;;29.33;12.13;;;;;;;;;;5003287;28;20404;-68
2022/11/27 08:50:23;;;;;;;25.83;12.65;;;;;;;;;;5018579;28;20484;-68
2022/11/27 08:52:48;;;;;;;33.03;17.30;;;;;;;;;;5003765;28;20047;-68
2022/11/27 08:55:13;;;;;;;28.92;13.07;;;;;;;;;;5002707;28;20037;-68
2022/11/27 08:57:39;;;;;;;35.88;19.33;;;;;;;;;;5004220;28;20193;-68
2022/11/27 09:00:05;;;;;;;43.50;21.40;;;;;;;;;;5003716;28;20049;-68
2022/11/27 09:02:33;;;;;;;40.28;21.35;;;;;;;;;;5003345;28;20095;-68
2022/11/27 09:05:01;;;;;;;47.72;20.88;;;;;;;;;;5033978;28;20037;-68
2022/11/27 09:07:29;;;;;;;45.35;21.98;;;;;;;;;;5004148;28;20110;-68
2022/11/27 09:09:56;;;;;;;49.60;24.08;;;;;;;;;;5003271;28;20065;-69
2022/11/27 09:12:22;;;;;;;46.17;24.95;;;;;;;;;;5003921;28;20349;-68
2022/11/27 09:14:47;;;;;;;50.05;27.00;;;;;;;;;;5002495;28;20064;-69
2022/11/27 09:17:13;;;;;;;47.58;26.35;;;;;;;;;;5001051;28;20041;-68
2022/11/27 09:19:38;;;;;;;48.35;26.17;;;;;;;;;;5002825;28;20037;-69
2022/11/27 09:22:03;;;;;;;52.55;24.42;;;;;;;;;;5003748;28;20253;-68
2022/11/27 09:24:28;;;;;;;49.17;26.65;;;;;;;;;;5001280;28;20040;-69
2022/11/27 09:26:54;;;;;;;45.65;24.15;;;;;;;;;;4982670;28;20060;-66
2022/11/27 09:29:19;;;;;;;46.63;24.75;;;;;;;;;;4982000;28;20599;-68
2022/11/27 09:31:47;;;;;;;38.25;21.92;;;;;;;;;;4981368;28;20115;-68
2022/11/27 09:34:13;;;;;;;46.13;26.08;;;;;;;;;;4996180;28;20075;-68
2022/11/27 09:36:38;;;;;;;39.85;12.95;;;;;;;;;;4991697;28;20083;-68
2022/11/27 09:39:04;;;;;;;26.85;9.85;;;;;;;;;;4995685;28;20037;-68
2022/11/27 09:41:37;;;;;;;29.13;11.23;;;;;;;;;;4998295;28;20095;-68
2022/11/27 09:44:11;;;;;;;31.98;10.18;;;;;;;;;;4997976;28;20577;-68
2022/11/27 09:46:38;;;;;;;29.73;14.35;;;;;;;;;;4999442;28;20041;-68
2022/11/27 09:49:05;;;;;;;25.08;8.63;;;;;;;;;;5000022;28;20488;-68
2022/11/27 09:51:33;;;;;;;23.13;9.57;;;;;;;;;;4995502;28;20170;-67
2022/11/27 09:54:19;;;;;;;20.23;8.98;;;;;;;;;;4998932;28;20061;-69
2022/11/27 09:56:48;;;;;;;31.60;10.88;;;;;;;;;;4998406;28;20503;-68
2022/11/27 09:59:16;;;;;;;24.55;10.50;;;;;;;;;;5000134;28;20040;-68
2022/11/27 10:01:41;;;;;;;30.15;11.60;;;;;;;;;;4983478;28;20490;-67
2022/11/27 10:04:08;;;;;;;32.65;12.15;;;;;;;;;;4978228;28;20080;-68
2022/11/27 10:06:33;;;;;;;25.50;10.57;;;;;;;;;;4979941;28;20156;-67
2022/11/27 10:09:02;;;;;;;21.98;10.57;;;;;;;;;;4977817;28;20112;-67
2022/11/27 10:11:45;;;;;;;23.60;11.90;;;;;;;;;;4979906;28;20124;-67
2022/11/27 10:14:14;;;;;;;27.88;12.40;;;;;;;;;;4978816;28;20152;-67
2022/11/27 10:17:02;;;;;;;23.05;11.43;;;;;;;;;;4980017;28;20678;-67
2022/11/27 10:19:50;;;;;;;23.75;12.30;;;;;;;;;;4973758;28;20388;-67
2022/11/27 10:22:38;;;;;;;33.53;19.02;;;;;;;;;;4980575;28;20357;-67
2022/11/27 10:25:10;;;;;;;24.98;12.85;;;;;;;;;;4974462;28;21794;-66
2022/11/27 10:27:50;;;;;;;26.45;11.70;;;;;;;;;;4979966;28;20334;-67
2022/11/27 10:30:17;;;;;;;23.63;11.73;;;;;;;;;;4974692;28;20034;-66
2022/11/27 10:32:43;;;;;;;27.17;13.77;;;;;;;;;;5011610;28;20037;-66
2022/11/27 10:35:16;;;;;;;32.97;14.00;;;;;;;;;;4979807;28;20038;-66
2022/11/27 10:37:44;;;;;;;25.67;12.43;;;;;;;;;;4999364;28;20583;-67
2022/11/27 10:40:10;;;;;;;26.00;12.52;;;;;;;;;;4997654;28;20416;-68
2022/11/27 10:42:50;;;;;;;21.50;10.68;;;;;;;;;;5015246;28;20414;-68
2022/11/27 10:45:44;;;;;;;38.35;21.75;;;;;;;;;;4985130;28;20152;-67
2022/11/27 10:48:11;;;;;;;48.30;26.15;;;;;;;;;;4979044;28;20503;-68
2022/11/27 10:50:37;;;;;;;45.03;24.92;;;;;;;;;;4977406;28;20125;-68
2022/11/27 10:53:09;;;;;;;29.35;15.38;;;;;;;;;;4992485;28;20115;-68
2022/11/27 10:55:53;;;;;;;37.65;21.98;;;;;;;;;;4978149;28;20052;-68
2022/11/27 10:58:24;;;;;;;39.47;21.60;;;;;;;;;;4978886;28;20045;-67
2022/11/27 11:01:01;;;;;;;34.42;16.15;;;;;;;;;;4978201;28;20039;-68
2022/11/27 11:03:26;;;;;;;21.52;11.43;;;;;;;;;;4978052;28;20034;-68
2022/11/27 11:05:57;;;;;;;45.88;28.60;;;;;;;;;;4977989;28;20030;-68
2022/11/27 11:08:25;;;;;;;43.92;26.40;;;;;;;;;;4980818;28;20033;-68
2022/11/27 11:10:53;;;;;;;33.22;19.35;;;;;;;;;;4977620;28;20034;-70
2022/11/27 11:13:50;;;;;;;30.92;17.88;;;;;;;;;;4976091;28;20041;-70
2022/11/27 11:16:29;;;;;;;38.90;24.45;;;;;;;;;;4966184;28;20116;-69
2022/11/27 11:18:57;;;;;;;28.58;16.10;;;;;;;;;;4977110;28;20148;-69
2022/11/27 11:21:25;;;;;;;30.92;17.08;;;;;;;;;;4974161;28;20842;-70
2022/11/27 11:24:02;;;;;;;43.72;26.40;;;;;;;;;;4980200;28;20783;-70
2022/11/27 11:26:33;;;;;;;38.35;24.15;;;;;;;;;;4978081;28;20038;-69
2022/11/27 11:28:59;;;;;;;44.70;24.70;;;;;;;;;;4994248;28;20490;-69
2022/11/27 11:31:30;;;;;;;44.65;27.90;;;;;;;;;;4999028;28;20052;-69
2022/11/27 11:33:57;;;;;;;41.00;25.38;;;;;;;;;;4997570;28;20161;-69
2022/11/27 11:36:22;;;;;;;47.15;29.67;;;;;;;;;;4978798;28;20038;-70
2022/11/27 11:38:51;;;;;;;48.72;32.22;;;;;;;;;;4979628;28;20160;-70
2022/11/27 11:41:19;;;;;;;44.60;28.38;;;;;;;;;;4978029;28;20045;-70
2022/11/27 11:44:00;;;;;;;39.85;25.73;;;;;;;;;;4980495;28;20041;-70
2022/11/27 11:46:31;;;;;;;41.67;28.02;;;;;;;;;;5016573;28;20040;-69
2022/11/27 11:49:18;;;;;;;40.28;25.38;;;;;;;;;;4984176;28;20148;-70
2022/11/27 11:51:47;;;;;;;33.03;20.35;;;;;;;;;;4996803;28;20126;-68
2022/11/27 11:54:22;;;;;;;29.80;18.70;;;;;;;;;;4998259;28;20133;-70
2022/11/27 11:56:51;;;;;;;41.58;26.35;;;;;;;;;;4999213;28;20041;-73
2022/11/27 11:59:42;;;;;;;41.90;27.20;;;;;;;;;;4999072;28;20140;-71
2022/11/27 12:02:16;;;;;;;67.22;49.20;;;;;;;;;;4996820;28;20025;-71
2022/11/27 12:04:44;;;;;;;46.05;30.33;;;;;;;;;;5012971;28;20091;-72
2022/11/27 12:07:28;;;;;;;61.17;37.05;;;;;;;;;;5000724;28;20029;-71
2022/11/27 12:10:09;;;;;;;60.80;38.28;;;;;;;;;;5000159;28;20279;-72
2022/11/27 12:12:43;;;;;;;32.85;19.02;;;;;;;;;;5000927;28;20056;-72
2022/11/27 12:15:21;;;;;;;20.60;11.13;;;;;;;;;;4994836;28;22288;-72
2022/11/27 12:17:46;;;;;;;18.38;11.38;;;;;;;;;;4982385;28;20054;-71
2022/11/27 12:20:14;;;;;;;25.33;12.07;;;;;;;;;;4979924;28;20068;-71
2022/11/27 12:22:52;;;;;;;32.38;24.85;;;;;;;;;;4985093;28;20045;-70
2022/11/27 12:25:20;;;;;;;31.98;18.92;;;;;;;;;;4977216;28;20953;-71
2022/11/27 12:28:03;;;;;;;47.97;29.88;;;;;;;;;;4979053;28;20052;-70
2022/11/27 12:30:54;;;;;;;36.38;22.67;;;;;;;;;;4983212;28;20104;-69
2022/11/27 12:33:27;;;;;;;48.35;33.30;;;;;;;;;;4986300;28;20084;-72
2022/11/27 12:36:12;;;;;;;65.10;40.15;;;;;;;;;;4994008;28;20076;-70
2022/11/27 12:39:03;;;;;;;51.63;35.25;;;;;;;;;;4980657;28;22352;-69
2022/11/27 12:41:47;;;;;;;46.53;31.10;;;;;;;;;;4980830;28;20038;-70
2022/11/27 12:44:29;;;;;;;48.58;32.00;;;;;;;;;;4979349;28;20037;-70
2022/11/27 12:46:54;;;;;;;50.30;33.08;;;;;;;;;;4979645;28;20033;-70
2022/11/27 12:49:23;;;;;;;60.38;33.90;;;;;;;;;;4982655;28;22308;-69
2022/11/27 12:52:07;;;;;;;50.47;29.63;;;;;;;;;;4982963;28;20071;-70
2022/11/27 12:54:43;;;;;;;59.65;38.10;;;;;;;;;;4996287;28;20719;-70
2022/11/27 12:57:15;;;;;;;49.92;31.90;;;;;;;;;;4977998;28;20041;-70
2022/11/27 12:59:49;;;;;;;41.13;25.30;;;;;;;;;;4983486;28;20041;-70
2022/11/27 13:02:27;;;;;;;45.38;29.85;;;;;;;;;;4979624;28;20025;-70
2022/11/27 13:04:55;;;;;;;41.58;25.35;;;;;;;;;;4977912;28;20936;-69
2022/11/27 13:07:23;;;;;;;58.03;44.92;;;;;;;;;;4979695;28;20030;-68
2022/11/27 13:10:07;;;;;;;47.45;32.35;;;;;;;;;;5001633;28;20085;-69
2022/11/27 13:12:34;;;;;;;56.80;33.08;;;;;;;;;;4975760;28;20112;-68
2022/11/27 13:15:02;;;;;;;46.38;30.05;;;;;;;;;;4979391;28;20805;-68
2022/11/27 13:17:39;;;;;;;42.78;28.45;;;;;;;;;;4979356;28;20557;-69
2022/11/27 13:20:05;;;;;;;53.85;34.92;;;;;;;;;;4959514;28;20037;-69
2022/11/27 13:22:33;;;;;;;62.25;41.03;;;;;;;;;;4981391;28;20148;-69
2022/11/27 13:25:00;;;;;;;59.08;38.03;;;;;;;;;;4983419;28;20030;-69
2022/11/27 13:27:27;;;;;;;49.33;32.10;;;;;;;;;;5014281;28;20026;-69
2022/11/27 13:30:03;;;;;;;39.35;31.23;;;;;;;;;;4981662;28;20061;-70
2022/11/27 13:32:39;;;;;;;46.88;29.45;;;;;;;;;;5008160;28;20541;-69
2022/11/27 13:35:17;;;;;;;51.63;32.05;;;;;;;;;;4994652;28;20044;-69
2022/11/27 13:37:44;;;;;;;41.58;28.40;;;;;;;;;;5000751;28;20590;-69
2022/11/27 13:40:25;;;;;;;50.72;33.35;;;;;;;;;;4999189;28;20137;-66
2022/11/27 13:42:54;;;;;;;53.53;34.60;;;;;;;;;;5001114;28;20512;-67
2022/11/27 13:45:22;;;;;;;47.22;30.88;;;;;;;;;;4991842;28;20587;-68
2022/11/27 13:47:49;;;;;;;48.33;26.02;;;;;;;;;;4982228;28;20289;-68
2022/11/27 13:50:16;;;;;;;57.63;38.10;;;;;;;;;;4976991;28;20073;-68
2022/11/27 13:53:06;;;;;;;48.20;29.70;;;;;;;;;;4999692;28;20420;-67
2022/11/27 13:55:39;;;;;;;42.20;29.42;;;;;;;;;;4990185;28;20354;-68
2022/11/27 13:58:07;;;;;;;52.75;32.17;;;;;;;;;;4999552;28;20057;-68
2022/11/27 14:00:37;;;;;;;64.05;38.45;;;;;;;;;;4998532;28;20134;-68
2022/11/27 14:03:03;;;;;;;71.18;41.75;;;;;;;;;;5001007;28;20498;-68
2022/11/27 14:05:39;;;;;;;56.83;38.05;;;;;;;;;;4999838;28;20037;-68
2022/11/27 14:08:17;;;;;;;52.95;34.60;;;;;;;;;;5003155;28;22435;-68
2022/11/27 14:10:54;;;;;;;61.40;36.97;;;;;;;;;;5032673;28;20635;-69
2022/11/27 14:13:20;;;;;;;43.30;29.63;;;;;;;;;;5001343;28;20052;-69
2022/11/27 14:15:55;;;;;;;45.03;28.35;;;;;;;;;;5034187;28;20146;-68
2022/11/27 14:18:21;;;;;;;31.70;17.60;;;;;;;;;;4988130;28;20076;-68
2022/11/27 14:20:49;;;;;;;32.38;18.92;;;;;;;;;;4983019;28;20774;-71
2022/11/27 14:23:35;;;;;;;35.00;18.88;;;;;;;;;;4987160;28;20034;-71
2022/11/27 14:26:19;;;;;;;35.53;17.92;;;;;;;;;;4984877;28;22345;-71
2022/11/27 14:28:47;;;;;;;41.47;17.13;;;;;;;;;;4997975;28;20928;-71
2022/11/27 14:31:39;;;;;;;43.97;20.45;;;;;;;;;;4983115;28;21183;-69
2022/11/27 14:34:04;;;;;;;30.00;17.48;;;;;;;;;;4979988;28;20172;-68
2022/11/27 14:36:31;;;;;;;32.03;17.25;;;;;;;;;;5017165;28;20076;-68